sensor_id;sensor_type;location;lat;lon;timestamp;P1;durP1;ratioP1;P2;durP2;ratioP2
18610;SDS011;9435;52.122;5.502;2024-02-28T00:00:12;98.32;;;29.52;;
18610;SDS011;9435;52.122;5.502;2024-02-28T00:02:40;99.32;;;29.60;;
18610;SDS011;9435;52.122;5.502;2024-02-28T00:05:07;103.25;;;30.75;;
18610;SDS011;9435;52.122;5.502;2024-02-28T00:07:35;104.07;;;30.70;;
18610;SDS011;9435;52.122;5.502;2024-02-28T00:10:02;100.43;;;29.48;;
18610;SDS011;9435;52.122;5.502;2024-02-28T00:12:29;108.40;;;31.13;;
18610;SDS011;9435;52.122;5.502;2024-02-28T00:14:58;95.78;;;30.08;;
18610;SDS011;9435;52.122;5.502;2024-02-28T00:17:25;98.43;;;30.95;;
18610;SDS011;9435;52.122;5.502;2024-02-28T00:19:52;113.85;;;31.95;;
18610;SDS011;9435;52.122;5.502;2024-02-28T00:22:19;106.47;;;30.80;;
18610;SDS011;9435;52.122;5.502;2024-02-28T00:24:46;105.70;;;29.80;;
18610;SDS011;9435;52.122;5.502;2024-02-28T00:27:13;100.80;;;30.63;;
18610;SDS011;9435;52.122;5.502;2024-02-28T00:29:40;104.40;;;30.88;;
18610;SDS011;9435;52.122;5.502;2024-02-28T00:32:08;97.45;;;29.02;;
18610;SDS011;9435;52.122;5.502;2024-02-28T00:34:35;105.60;;;30.75;;
18610;SDS011;9435;52.122;5.502;2024-02-28T00:37:03;99.70;;;30.20;;
18610;SDS011;9435;52.122;5.502;2024-02-28T00:39:30;97.38;;;30.70;;
18610;SDS011;9435;52.122;5.502;2024-02-28T00:41:57;94.78;;;29.40;;
18610;SDS011;9435;52.122;5.502;2024-02-28T00:44:24;98.43;;;29.52;;
18610;SDS011;9435;52.122;5.502;2024-02-28T00:46:51;93.22;;;28.95;;
18610;SDS011;9435;52.122;5.502;2024-02-28T00:49:20;90.18;;;27.77;;
18610;SDS011;9435;52.122;5.502;2024-02-28T00:51:47;92.20;;;28.70;;
18610;SDS011;9435;52.122;5.502;2024-02-28T00:54:14;82.55;;;26.95;;
18610;SDS011;9435;52.122;5.502;2024-02-28T00:56:41;85.63;;;28.70;;
18610;SDS011;9435;52.122;5.502;2024-02-28T00:59:08;93.57;;;29.77;;
18610;SDS011;9435;52.122;5.502;2024-02-28T01:01:36;82.63;;;27.92;;
18610;SDS011;9435;52.122;5.502;2024-02-28T01:04:03;83.00;;;26.75;;
18610;SDS011;9435;52.122;5.502;2024-02-28T01:06:31;84.00;;;28.20;;
18610;SDS011;9435;52.122;5.502;2024-02-28T01:08:59;88.43;;;28.08;;
18610;SDS011;9435;52.122;5.502;2024-02-28T01:11:26;86.80;;;27.58;;
18610;SDS011;9435;52.122;5.502;2024-02-28T01:13:53;76.75;;;26.05;;
18610;SDS011;9435;52.122;5.502;2024-02-28T01:16:20;88.13;;;28.02;;
18610;SDS011;9435;52.122;5.502;2024-02-28T01:18:47;86.07;;;28.13;;
18610;SDS011;9435;52.122;5.502;2024-02-28T01:21:14;85.30;;;28.45;;
18610;SDS011;9435;52.122;5.502;2024-02-28T01:23:42;87.32;;;28.15;;
18610;SDS011;9435;52.122;5.502;2024-02-28T01:26:09;90.22;;;28.48;;
18610;SDS011;9435;52.122;5.502;2024-02-28T01:28:36;113.85;;;29.48;;
18610;SDS011;9435;52.122;5.502;2024-02-28T01:31:03;86.40;;;28.20;;
18610;SDS011;9435;52.122;5.502;2024-02-28T01:33:31;78.63;;;26.88;;
18610;SDS011;9435;52.122;5.502;2024-02-28T01:35:58;81.05;;;27.80;;
18610;SDS011;9435;52.122;5.502;2024-02-28T01:38:25;92.43;;;27.70;;
18610;SDS011;9435;52.122;5.502;2024-02-28T01:40:54;148.27;;;27.88;;
18610;SDS011;9435;52.122;5.502;2024-02-28T01:43:21;74.82;;;26.27;;
18610;SDS011;9435;52.122;5.502;2024-02-28T01:45:49;81.53;;;27.27;;
18610;SDS011;9435;52.122;5.502;2024-02-28T01:48:16;82.43;;;26.70;;
18610;SDS011;9435;52.122;5.502;2024-02-28T01:50:43;76.90;;;26.20;;
18610;SDS011;9435;52.122;5.502;2024-02-28T01:53:11;82.25;;;25.33;;
18610;SDS011;9435;52.122;5.502;2024-02-28T01:55:38;88.80;;;26.50;;
18610;SDS011;9435;52.122;5.502;2024-02-28T01:58:07;70.68;;;24.25;;
18610;SDS011;9435;52.122;5.502;2024-02-28T02:00:35;68.32;;;24.13;;
18610;SDS011;9435;52.122;5.502;2024-02-28T02:03:03;96.43;;;25.35;;
18610;SDS011;9435;52.122;5.502;2024-02-28T02:05:30;74.45;;;23.88;;
18610;SDS011;9435;52.122;5.502;2024-02-28T02:07:58;71.20;;;24.50;;
18610;SDS011;9435;52.122;5.502;2024-02-28T02:10:26;65.72;;;23.77;;
18610;SDS011;9435;52.122;5.502;2024-02-28T02:12:53;94.88;;;24.25;;
18610;SDS011;9435;52.122;5.502;2024-02-28T02:15:21;83.45;;;23.30;;
18610;SDS011;9435;52.122;5.502;2024-02-28T02:17:48;68.70;;;23.15;;
18610;SDS011;9435;52.122;5.502;2024-02-28T02:20:15;62.67;;;23.23;;
18610;SDS011;9435;52.122;5.502;2024-02-28T02:22:47;73.05;;;22.55;;
18610;SDS011;9435;52.122;5.502;2024-02-28T02:25:14;50.83;;;21.33;;
18610;SDS011;9435;52.122;5.502;2024-02-28T02:27:41;59.20;;;22.20;;
18610;SDS011;9435;52.122;5.502;2024-02-28T02:30:09;56.90;;;22.00;;
18610;SDS011;9435;52.122;5.502;2024-02-28T02:32:36;53.03;;;22.05;;
18610;SDS011;9435;52.122;5.502;2024-02-28T02:35:04;60.05;;;22.30;;
18610;SDS011;9435;52.122;5.502;2024-02-28T02:37:31;53.17;;;21.40;;
18610;SDS011;9435;52.122;5.502;2024-02-28T02:40:00;58.53;;;22.50;;
18610;SDS011;9435;52.122;5.502;2024-02-28T02:42:27;69.05;;;22.20;;
18610;SDS011;9435;52.122;5.502;2024-02-28T02:44:54;56.00;;;22.67;;
18610;SDS011;9435;52.122;5.502;2024-02-28T02:47:21;53.85;;;22.50;;
18610;SDS011;9435;52.122;5.502;2024-02-28T02:49:48;51.63;;;21.58;;
18610;SDS011;9435;52.122;5.502;2024-02-28T02:52:16;53.17;;;22.27;;
18610;SDS011;9435;52.122;5.502;2024-02-28T02:54:43;59.38;;;23.48;;
18610;SDS011;9435;52.122;5.502;2024-02-28T02:57:11;55.60;;;22.95;;
18610;SDS011;9435;52.122;5.502;2024-02-28T02:59:38;55.67;;;22.27;;
18610;SDS011;9435;52.122;5.502;2024-02-28T03:02:05;54.58;;;21.83;;
18610;SDS011;9435;52.122;5.502;2024-02-28T03:04:32;54.15;;;22.50;;
18610;SDS011;9435;52.122;5.502;2024-02-28T03:06:59;51.95;;;21.17;;
18610;SDS011;9435;52.122;5.502;2024-02-28T03:09:26;52.85;;;22.02;;
18610;SDS011;9435;52.122;5.502;2024-02-28T03:11:53;52.38;;;22.27;;
18610;SDS011;9435;52.122;5.502;2024-02-28T03:14:22;56.72;;;22.60;;
18610;SDS011;9435;52.122;5.502;2024-02-28T03:16:50;59.17;;;22.70;;
18610;SDS011;9435;52.122;5.502;2024-02-28T03:19:17;53.58;;;22.15;;
18610;SDS011;9435;52.122;5.502;2024-02-28T03:21:44;58.42;;;22.90;;
18610;SDS011;9435;52.122;5.502;2024-02-28T03:24:11;52.88;;;21.67;;
18610;SDS011;9435;52.122;5.502;2024-02-28T03:26:38;56.30;;;22.88;;
18610;SDS011;9435;52.122;5.502;2024-02-28T03:29:05;56.50;;;23.38;;
18610;SDS011;9435;52.122;5.502;2024-02-28T03:31:34;61.95;;;23.77;;
18610;SDS011;9435;52.122;5.502;2024-02-28T03:34:01;55.00;;;23.23;;
18610;SDS011;9435;52.122;5.502;2024-02-28T03:36:28;62.90;;;24.25;;
18610;SDS011;9435;52.122;5.502;2024-02-28T03:38:55;55.97;;;22.20;;
18610;SDS011;9435;52.122;5.502;2024-02-28T03:41:22;60.95;;;23.80;;
18610;SDS011;9435;52.122;5.502;2024-02-28T03:43:49;60.50;;;22.75;;
18610;SDS011;9435;52.122;5.502;2024-02-28T03:46:16;60.22;;;23.48;;
18610;SDS011;9435;52.122;5.502;2024-02-28T03:48:45;57.25;;;23.30;;
18610;SDS011;9435;52.122;5.502;2024-02-28T03:51:12;57.17;;;22.75;;
18610;SDS011;9435;52.122;5.502;2024-02-28T03:53:40;64.93;;;23.85;;
18610;SDS011;9435;52.122;5.502;2024-02-28T03:56:07;61.45;;;23.70;;
18610;SDS011;9435;52.122;5.502;2024-02-28T03:58:34;61.80;;;24.80;;
18610;SDS011;9435;52.122;5.502;2024-02-28T04:01:02;58.13;;;23.70;;
18610;SDS011;9435;52.122;5.502;2024-02-28T04:03:29;61.85;;;24.33;;
18610;SDS011;9435;52.122;5.502;2024-02-28T04:05:58;63.22;;;23.58;;
18610;SDS011;9435;52.122;5.502;2024-02-28T04:08:25;60.75;;;23.65;;
18610;SDS011;9435;52.122;5.502;2024-02-28T04:10:52;59.83;;;23.08;;
18610;SDS011;9435;52.122;5.502;2024-02-28T04:13:19;60.47;;;24.75;;
18610;SDS011;9435;52.122;5.502;2024-02-28T04:15:46;59.22;;;23.92;;
18610;SDS011;9435;52.122;5.502;2024-02-28T04:18:13;59.78;;;24.25;;
18610;SDS011;9435;52.122;5.502;2024-02-28T04:20:40;58.42;;;23.85;;
18610;SDS011;9435;52.122;5.502;2024-02-28T04:23:09;59.00;;;23.67;;
18610;SDS011;9435;52.122;5.502;2024-02-28T04:25:36;54.63;;;23.70;;
18610;SDS011;9435;52.122;5.502;2024-02-28T04:28:05;60.92;;;23.38;;
18610;SDS011;9435;52.122;5.502;2024-02-28T04:30:33;58.42;;;23.65;;
18610;SDS011;9435;52.122;5.502;2024-02-28T04:33:01;60.35;;;24.23;;
18610;SDS011;9435;52.122;5.502;2024-02-28T04:35:28;61.45;;;24.75;;
18610;SDS011;9435;52.122;5.502;2024-02-28T04:37:55;59.13;;;24.27;;
18610;SDS011;9435;52.122;5.502;2024-02-28T04:40:23;60.47;;;24.55;;
18610;SDS011;9435;52.122;5.502;2024-02-28T04:42:50;58.95;;;25.48;;
18610;SDS011;9435;52.122;5.502;2024-02-28T04:45:17;60.58;;;24.90;;
18610;SDS011;9435;52.122;5.502;2024-02-28T04:47:45;65.47;;;25.20;;
18610;SDS011;9435;52.122;5.502;2024-02-28T04:50:12;62.85;;;25.55;;
18610;SDS011;9435;52.122;5.502;2024-02-28T04:52:39;59.53;;;25.40;;
18610;SDS011;9435;52.122;5.502;2024-02-28T04:55:06;58.88;;;25.20;;
18610;SDS011;9435;52.122;5.502;2024-02-28T04:57:35;55.22;;;24.77;;
18610;SDS011;9435;52.122;5.502;2024-02-28T05:00:03;64.38;;;26.65;;
18610;SDS011;9435;52.122;5.502;2024-02-28T05:02:31;59.45;;;25.10;;
18610;SDS011;9435;52.122;5.502;2024-02-28T05:04:58;57.60;;;25.67;;
18610;SDS011;9435;52.122;5.502;2024-02-28T05:07:26;57.65;;;25.10;;
18610;SDS011;9435;52.122;5.502;2024-02-28T05:09:53;58.13;;;25.10;;
18610;SDS011;9435;52.122;5.502;2024-02-28T05:12:20;62.83;;;25.85;;
18610;SDS011;9435;52.122;5.502;2024-02-28T05:14:49;59.80;;;25.48;;
18610;SDS011;9435;52.122;5.502;2024-02-28T05:17:16;53.45;;;25.00;;
18610;SDS011;9435;52.122;5.502;2024-02-28T05:19:43;58.03;;;26.05;;
18610;SDS011;9435;52.122;5.502;2024-02-28T05:22:10;59.92;;;26.30;;
18610;SDS011;9435;52.122;5.502;2024-02-28T05:24:37;58.90;;;25.70;;
18610;SDS011;9435;52.122;5.502;2024-02-28T05:27:04;54.47;;;24.40;;
18610;SDS011;9435;52.122;5.502;2024-02-28T05:29:31;58.08;;;26.50;;
18610;SDS011;9435;52.122;5.502;2024-02-28T05:31:59;60.70;;;24.98;;
18610;SDS011;9435;52.122;5.502;2024-02-28T05:34:26;58.45;;;25.80;;
18610;SDS011;9435;52.122;5.502;2024-02-28T05:36:53;57.78;;;25.20;;
18610;SDS011;9435;52.122;5.502;2024-02-28T05:39:20;60.53;;;26.35;;
18610;SDS011;9435;52.122;5.502;2024-02-28T05:41:47;57.80;;;24.70;;
18610;SDS011;9435;52.122;5.502;2024-02-28T05:44:14;61.70;;;26.17;;
18610;SDS011;9435;52.122;5.502;2024-02-28T05:46:41;55.38;;;25.27;;
18610;SDS011;9435;52.122;5.502;2024-02-28T05:49:09;60.83;;;26.92;;
18610;SDS011;9435;52.122;5.502;2024-02-28T05:51:36;54.85;;;25.10;;
18610;SDS011;9435;52.122;5.502;2024-02-28T05:54:04;53.97;;;25.55;;
18610;SDS011;9435;52.122;5.502;2024-02-28T05:56:31;57.08;;;26.50;;
18610;SDS011;9435;52.122;5.502;2024-02-28T05:58:58;57.38;;;26.20;;
18610;SDS011;9435;52.122;5.502;2024-02-28T06:01:25;56.17;;;26.52;;
18610;SDS011;9435;52.122;5.502;2024-02-28T06:03:52;54.92;;;25.60;;
18610;SDS011;9435;52.122;5.502;2024-02-28T06:06:20;54.15;;;24.65;;
18610;SDS011;9435;52.122;5.502;2024-02-28T06:08:48;58.55;;;26.23;;
18610;SDS011;9435;52.122;5.502;2024-02-28T06:11:15;52.60;;;25.00;;
18610;SDS011;9435;52.122;5.502;2024-02-28T06:13:42;59.80;;;28.77;;
18610;SDS011;9435;52.122;5.502;2024-02-28T06:16:13;54.53;;;26.48;;
18610;SDS011;9435;52.122;5.502;2024-02-28T06:18:40;54.30;;;25.83;;
18610;SDS011;9435;52.122;5.502;2024-02-28T06:21:07;60.08;;;26.98;;
18610;SDS011;9435;52.122;5.502;2024-02-28T06:23:36;55.85;;;25.17;;
18610;SDS011;9435;52.122;5.502;2024-02-28T06:26:03;58.00;;;26.42;;
18610;SDS011;9435;52.122;5.502;2024-02-28T06:28:30;58.55;;;26.45;;
18610;SDS011;9435;52.122;5.502;2024-02-28T06:30:58;56.80;;;26.02;;
18610;SDS011;9435;52.122;5.502;2024-02-28T06:33:25;51.10;;;25.17;;
18610;SDS011;9435;52.122;5.502;2024-02-28T06:35:52;59.20;;;26.23;;
18610;SDS011;9435;52.122;5.502;2024-02-28T06:38:19;58.03;;;26.80;;
18610;SDS011;9435;52.122;5.502;2024-02-28T06:40:48;57.55;;;26.23;;
18610;SDS011;9435;52.122;5.502;2024-02-28T06:43:15;55.50;;;27.40;;
18610;SDS011;9435;52.122;5.502;2024-02-28T06:45:42;52.60;;;25.45;;
18610;SDS011;9435;52.122;5.502;2024-02-28T06:48:09;55.45;;;26.77;;
18610;SDS011;9435;52.122;5.502;2024-02-28T06:50:37;58.47;;;27.35;;
18610;SDS011;9435;52.122;5.502;2024-02-28T06:53:04;62.15;;;28.17;;
18610;SDS011;9435;52.122;5.502;2024-02-28T06:55:31;59.70;;;27.80;;
18610;SDS011;9435;52.122;5.502;2024-02-28T06:58:00;56.08;;;27.40;;
18610;SDS011;9435;52.122;5.502;2024-02-28T07:00:27;64.13;;;28.67;;
18610;SDS011;9435;52.122;5.502;2024-02-28T07:02:54;61.45;;;28.13;;
18610;SDS011;9435;52.122;5.502;2024-02-28T07:05:21;55.42;;;27.60;;
18610;SDS011;9435;52.122;5.502;2024-02-28T07:07:49;58.70;;;27.77;;
18610;SDS011;9435;52.122;5.502;2024-02-28T07:10:16;59.15;;;28.20;;
18610;SDS011;9435;52.122;5.502;2024-02-28T07:12:43;61.03;;;28.85;;
18610;SDS011;9435;52.122;5.502;2024-02-28T07:15:12;60.63;;;29.35;;
18610;SDS011;9435;52.122;5.502;2024-02-28T07:17:39;66.60;;;30.27;;
18610;SDS011;9435;52.122;5.502;2024-02-28T07:20:06;62.13;;;30.10;;
18610;SDS011;9435;52.122;5.502;2024-02-28T07:22:34;67.13;;;30.70;;
18610;SDS011;9435;52.122;5.502;2024-02-28T07:25:01;61.63;;;29.35;;
18610;SDS011;9435;52.122;5.502;2024-02-28T07:27:29;67.60;;;31.80;;
18610;SDS011;9435;52.122;5.502;2024-02-28T07:29:56;64.78;;;31.05;;
18610;SDS011;9435;52.122;5.502;2024-02-28T07:32:25;63.90;;;29.55;;
18610;SDS011;9435;52.122;5.502;2024-02-28T07:34:52;62.72;;;30.77;;
18610;SDS011;9435;52.122;5.502;2024-02-28T07:37:19;67.72;;;32.70;;
18610;SDS011;9435;52.122;5.502;2024-02-28T07:39:46;65.65;;;32.22;;
18610;SDS011;9435;52.122;5.502;2024-02-28T07:42:13;67.78;;;32.42;;
18610;SDS011;9435;52.122;5.502;2024-02-28T07:44:40;63.38;;;31.85;;
18610;SDS011;9435;52.122;5.502;2024-02-28T07:47:07;62.38;;;30.50;;
18610;SDS011;9435;52.122;5.502;2024-02-28T07:49:36;62.25;;;31.25;;
18610;SDS011;9435;52.122;5.502;2024-02-28T07:52:03;62.70;;;32.08;;
18610;SDS011;9435;52.122;5.502;2024-02-28T07:54:30;62.55;;;31.65;;
18610;SDS011;9435;52.122;5.502;2024-02-28T07:56:57;63.00;;;33.05;;
18610;SDS011;9435;52.122;5.502;2024-02-28T07:59:24;60.65;;;31.42;;
18610;SDS011;9435;52.122;5.502;2024-02-28T08:01:51;64.70;;;32.65;;
18610;SDS011;9435;52.122;5.502;2024-02-28T08:04:18;60.88;;;32.40;;
18610;SDS011;9435;52.122;5.502;2024-02-28T08:06:47;66.90;;;33.50;;
18610;SDS011;9435;52.122;5.502;2024-02-28T08:09:14;66.63;;;33.83;;
18610;SDS011;9435;52.122;5.502;2024-02-28T08:11:41;64.00;;;32.63;;
18610;SDS011;9435;52.122;5.502;2024-02-28T08:14:08;65.45;;;33.78;;
18610;SDS011;9435;52.122;5.502;2024-02-28T08:16:36;63.28;;;33.65;;
18610;SDS011;9435;52.122;5.502;2024-02-28T08:19:03;65.53;;;34.40;;
18610;SDS011;9435;52.122;5.502;2024-02-28T08:21:30;65.22;;;33.65;;
18610;SDS011;9435;52.122;5.502;2024-02-28T08:23:58;66.43;;;35.53;;
18610;SDS011;9435;52.122;5.502;2024-02-28T08:26:28;67.10;;;35.30;;
18610;SDS011;9435;52.122;5.502;2024-02-28T08:28:55;66.90;;;35.72;;
18610;SDS011;9435;52.122;5.502;2024-02-28T08:31:22;68.18;;;35.53;;
18610;SDS011;9435;52.122;5.502;2024-02-28T08:33:50;69.53;;;35.25;;
18610;SDS011;9435;52.122;5.502;2024-02-28T08:36:17;72.78;;;36.13;;
18610;SDS011;9435;52.122;5.502;2024-02-28T08:38:44;70.90;;;36.35;;
18610;SDS011;9435;52.122;5.502;2024-02-28T08:41:12;72.15;;;36.35;;
18610;SDS011;9435;52.122;5.502;2024-02-28T08:43:42;69.20;;;36.10;;
18610;SDS011;9435;52.122;5.502;2024-02-28T08:46:09;68.82;;;35.65;;
18610;SDS011;9435;52.122;5.502;2024-02-28T08:48:40;69.50;;;36.58;;
18610;SDS011;9435;52.122;5.502;2024-02-28T08:51:08;69.03;;;35.92;;
18610;SDS011;9435;52.122;5.502;2024-02-28T08:53:35;66.80;;;35.70;;
18610;SDS011;9435;52.122;5.502;2024-02-28T08:56:02;64.63;;;35.25;;
18610;SDS011;9435;52.122;5.502;2024-02-28T08:58:31;70.55;;;34.92;;
18610;SDS011;9435;52.122;5.502;2024-02-28T09:00:58;68.75;;;34.75;;
18610;SDS011;9435;52.122;5.502;2024-02-28T09:03:25;64.05;;;34.10;;
18610;SDS011;9435;52.122;5.502;2024-02-28T09:05:52;64.20;;;34.05;;
18610;SDS011;9435;52.122;5.502;2024-02-28T09:08:19;63.88;;;33.85;;
18610;SDS011;9435;52.122;5.502;2024-02-28T09:10:46;68.82;;;34.17;;
18610;SDS011;9435;52.122;5.502;2024-02-28T09:13:13;66.53;;;33.03;;
18610;SDS011;9435;52.122;5.502;2024-02-28T09:15:42;69.85;;;34.72;;
18610;SDS011;9435;52.122;5.502;2024-02-28T09:18:09;67.32;;;34.47;;
18610;SDS011;9435;52.122;5.502;2024-02-28T09:20:36;65.25;;;33.55;;
18610;SDS011;9435;52.122;5.502;2024-02-28T09:23:03;63.67;;;33.28;;
18610;SDS011;9435;52.122;5.502;2024-02-28T09:25:31;64.25;;;32.45;;
18610;SDS011;9435;52.122;5.502;2024-02-28T09:28:00;65.75;;;34.10;;
18610;SDS011;9435;52.122;5.502;2024-02-28T09:30:28;63.70;;;33.13;;
18610;SDS011;9435;52.122;5.502;2024-02-28T09:32:57;62.95;;;32.47;;
18610;SDS011;9435;52.122;5.502;2024-02-28T09:35:24;62.80;;;31.60;;
18610;SDS011;9435;52.122;5.502;2024-02-28T09:37:51;64.63;;;32.45;;
18610;SDS011;9435;52.122;5.502;2024-02-28T09:40:18;60.67;;;30.92;;
18610;SDS011;9435;52.122;5.502;2024-02-28T09:42:46;65.35;;;31.92;;
18610;SDS011;9435;52.122;5.502;2024-02-28T09:45:17;61.60;;;32.38;;
18610;SDS011;9435;52.122;5.502;2024-02-28T09:47:46;61.47;;;31.30;;
18610;SDS011;9435;52.122;5.502;2024-02-28T09:50:15;58.78;;;30.02;;
18610;SDS011;9435;52.122;5.502;2024-02-28T09:52:44;60.58;;;30.63;;
18610;SDS011;9435;52.122;5.502;2024-02-28T09:55:11;58.05;;;32.20;;
18610;SDS011;9435;52.122;5.502;2024-02-28T09:57:38;61.63;;;31.38;;
18610;SDS011;9435;52.122;5.502;2024-02-28T10:00:09;58.38;;;30.05;;
18610;SDS011;9435;52.122;5.502;2024-02-28T10:02:37;60.15;;;30.98;;
18610;SDS011;9435;52.122;5.502;2024-02-28T10:05:05;58.90;;;31.08;;
18610;SDS011;9435;52.122;5.502;2024-02-28T10:07:35;61.45;;;30.92;;
18610;SDS011;9435;52.122;5.502;2024-02-28T10:10:03;60.67;;;32.05;;
18610;SDS011;9435;52.122;5.502;2024-02-28T10:12:33;57.30;;;30.98;;
18610;SDS011;9435;52.122;5.502;2024-02-28T10:15:00;62.65;;;32.17;;
18610;SDS011;9435;52.122;5.502;2024-02-28T10:17:27;58.85;;;31.17;;
18610;SDS011;9435;52.122;5.502;2024-02-28T10:19:54;60.65;;;31.38;;
18610;SDS011;9435;52.122;5.502;2024-02-28T10:22:24;63.95;;;30.83;;
18610;SDS011;9435;52.122;5.502;2024-02-28T10:24:57;64.60;;;32.15;;
18610;SDS011;9435;52.122;5.502;2024-02-28T10:27:25;62.47;;;33.47;;
18610;SDS011;9435;52.122;5.502;2024-02-28T10:29:52;59.85;;;31.80;;
18610;SDS011;9435;52.122;5.502;2024-02-28T10:32:19;59.00;;;31.60;;
18610;SDS011;9435;52.122;5.502;2024-02-28T10:34:46;59.45;;;31.98;;
18610;SDS011;9435;52.122;5.502;2024-02-28T10:37:13;60.97;;;31.55;;
18610;SDS011;9435;52.122;5.502;2024-02-28T10:39:41;57.40;;;31.02;;
18610;SDS011;9435;52.122;5.502;2024-02-28T10:42:10;59.00;;;31.00;;
18610;SDS011;9435;52.122;5.502;2024-02-28T10:44:38;58.10;;;30.63;;
18610;SDS011;9435;52.122;5.502;2024-02-28T10:47:08;55.90;;;30.02;;
18610;SDS011;9435;52.122;5.502;2024-02-28T10:49:35;55.58;;;29.55;;
18610;SDS011;9435;52.122;5.502;2024-02-28T10:52:02;56.95;;;29.42;;
18610;SDS011;9435;52.122;5.502;2024-02-28T10:54:31;58.90;;;29.23;;
18610;SDS011;9435;52.122;5.502;2024-02-28T10:57:01;62.22;;;30.73;;
18610;SDS011;9435;52.122;5.502;2024-02-28T10:59:31;58.25;;;29.23;;
18610;SDS011;9435;52.122;5.502;2024-02-28T11:02:00;53.85;;;28.95;;
18610;SDS011;9435;52.122;5.502;2024-02-28T11:04:28;57.25;;;28.73;;
18610;SDS011;9435;52.122;5.502;2024-02-28T11:06:55;53.50;;;29.17;;
18610;SDS011;9435;52.122;5.502;2024-02-28T11:09:24;58.95;;;30.20;;
18610;SDS011;9435;52.122;5.502;2024-02-28T11:11:52;59.83;;;30.10;;
18610;SDS011;9435;52.122;5.502;2024-02-28T11:14:21;54.75;;;29.70;;
18610;SDS011;9435;52.122;5.502;2024-02-28T11:17:00;63.17;;;31.20;;
18610;SDS011;9435;52.122;5.502;2024-02-28T11:19:28;56.42;;;30.00;;
18610;SDS011;9435;52.122;5.502;2024-02-28T11:21:56;58.53;;;29.65;;
18610;SDS011;9435;52.122;5.502;2024-02-28T11:24:24;56.63;;;28.92;;
18610;SDS011;9435;52.122;5.502;2024-02-28T11:26:56;57.47;;;29.40;;
18610;SDS011;9435;52.122;5.502;2024-02-28T11:29:23;55.83;;;29.15;;
18610;SDS011;9435;52.122;5.502;2024-02-28T11:31:52;59.42;;;29.48;;
18610;SDS011;9435;52.122;5.502;2024-02-28T11:34:20;63.17;;;29.80;;
18610;SDS011;9435;52.122;5.502;2024-02-28T11:36:48;51.50;;;27.55;;
18610;SDS011;9435;52.122;5.502;2024-02-28T11:39:15;58.22;;;28.52;;
18610;SDS011;9435;52.122;5.502;2024-02-28T11:41:43;51.38;;;26.88;;
18610;SDS011;9435;52.122;5.502;2024-02-28T11:44:11;53.10;;;26.20;;
18610;SDS011;9435;52.122;5.502;2024-02-28T11:46:42;53.95;;;27.90;;
18610;SDS011;9435;52.122;5.502;2024-02-28T11:49:10;50.53;;;26.52;;
18610;SDS011;9435;52.122;5.502;2024-02-28T11:51:40;50.00;;;26.30;;
18610;SDS011;9435;52.122;5.502;2024-02-28T11:54:08;52.45;;;26.85;;
18610;SDS011;9435;52.122;5.502;2024-02-28T11:56:36;50.03;;;27.25;;
18610;SDS011;9435;52.122;5.502;2024-02-28T11:59:04;51.72;;;25.90;;
18610;SDS011;9435;52.122;5.502;2024-02-28T12:01:34;51.85;;;25.70;;
18610;SDS011;9435;52.122;5.502;2024-02-28T12:04:02;49.72;;;25.65;;
18610;SDS011;9435;52.122;5.502;2024-02-28T12:06:31;51.28;;;25.15;;
18610;SDS011;9435;52.122;5.502;2024-02-28T12:09:00;53.05;;;25.45;;
18610;SDS011;9435;52.122;5.502;2024-02-28T12:11:28;52.95;;;26.23;;
18610;SDS011;9435;52.122;5.502;2024-02-28T12:13:56;55.08;;;26.27;;
18610;SDS011;9435;52.122;5.502;2024-02-28T12:16:24;51.97;;;25.75;;
18610;SDS011;9435;52.122;5.502;2024-02-28T12:18:52;52.17;;;25.23;;
18610;SDS011;9435;52.122;5.502;2024-02-28T12:21:19;49.83;;;24.80;;
18610;SDS011;9435;52.122;5.502;2024-02-28T12:23:47;52.03;;;25.35;;
18610;SDS011;9435;52.122;5.502;2024-02-28T12:26:17;46.63;;;23.85;;
18610;SDS011;9435;52.122;5.502;2024-02-28T12:28:45;48.30;;;23.98;;
18610;SDS011;9435;52.122;5.502;2024-02-28T12:31:12;46.65;;;23.23;;
18610;SDS011;9435;52.122;5.502;2024-02-28T12:33:39;47.83;;;23.25;;
18610;SDS011;9435;52.122;5.502;2024-02-28T12:36:07;48.75;;;23.90;;
18610;SDS011;9435;52.122;5.502;2024-02-28T12:38:35;47.50;;;23.95;;
18610;SDS011;9435;52.122;5.502;2024-02-28T12:41:02;47.97;;;24.00;;
18610;SDS011;9435;52.122;5.502;2024-02-28T12:43:31;52.03;;;24.73;;
18610;SDS011;9435;52.122;5.502;2024-02-28T12:45:58;47.85;;;22.52;;
18610;SDS011;9435;52.122;5.502;2024-02-28T12:48:25;45.75;;;22.88;;
18610;SDS011;9435;52.122;5.502;2024-02-28T12:50:52;44.97;;;22.88;;
18610;SDS011;9435;52.122;5.502;2024-02-28T12:53:19;45.50;;;22.52;;
18610;SDS011;9435;52.122;5.502;2024-02-28T12:55:46;44.78;;;21.38;;
18610;SDS011;9435;52.122;5.502;2024-02-28T12:58:14;42.50;;;21.67;;
18610;SDS011;9435;52.122;5.502;2024-02-28T13:00:42;46.85;;;21.88;;
18610;SDS011;9435;52.122;5.502;2024-02-28T13:03:09;45.70;;;22.13;;
18610;SDS011;9435;52.122;5.502;2024-02-28T13:05:36;45.38;;;23.65;;
18610;SDS011;9435;52.122;5.502;2024-02-28T13:08:04;45.67;;;22.60;;
18610;SDS011;9435;52.122;5.502;2024-02-28T13:10:31;45.90;;;22.83;;
18610;SDS011;9435;52.122;5.502;2024-02-28T13:13:01;45.70;;;23.40;;
18610;SDS011;9435;52.122;5.502;2024-02-28T13:15:28;49.03;;;24.10;;
18610;SDS011;9435;52.122;5.502;2024-02-28T13:17:56;43.90;;;23.05;;
18610;SDS011;9435;52.122;5.502;2024-02-28T13:20:24;51.53;;;26.35;;
18610;SDS011;9435;52.122;5.502;2024-02-28T13:22:51;59.15;;;29.48;;
18610;SDS011;9435;52.122;5.502;2024-02-28T13:25:18;63.25;;;30.67;;
18610;SDS011;9435;52.122;5.502;2024-02-28T13:27:46;64.55;;;30.95;;
18610;SDS011;9435;52.122;5.502;2024-02-28T13:30:13;50.70;;;27.05;;
18610;SDS011;9435;52.122;5.502;2024-02-28T13:32:40;47.97;;;25.42;;
18610;SDS011;9435;52.122;5.502;2024-02-28T13:35:09;51.72;;;27.75;;
18610;SDS011;9435;52.122;5.502;2024-02-28T13:37:36;51.42;;;27.33;;
18610;SDS011;9435;52.122;5.502;2024-02-28T13:40:06;44.70;;;24.95;;
18610;SDS011;9435;52.122;5.502;2024-02-28T13:42:35;45.15;;;24.98;;
18610;SDS011;9435;52.122;5.502;2024-02-28T13:45:03;45.97;;;24.55;;
18610;SDS011;9435;52.122;5.502;2024-02-28T13:47:32;45.53;;;24.77;;
18610;SDS011;9435;52.122;5.502;2024-02-28T13:49:59;44.92;;;23.45;;
18610;SDS011;9435;52.122;5.502;2024-02-28T13:52:28;40.40;;;22.85;;
18610;SDS011;9435;52.122;5.502;2024-02-28T13:54:55;42.70;;;23.58;;
18610;SDS011;9435;52.122;5.502;2024-02-28T13:57:22;39.55;;;23.67;;
18610;SDS011;9435;52.122;5.502;2024-02-28T13:59:49;41.83;;;23.23;;
18610;SDS011;9435;52.122;5.502;2024-02-28T14:02:19;41.40;;;23.83;;
18610;SDS011;9435;52.122;5.502;2024-02-28T14:04:47;39.47;;;21.85;;
18610;SDS011;9435;52.122;5.502;2024-02-28T14:07:15;42.00;;;22.52;;
18610;SDS011;9435;52.122;5.502;2024-02-28T14:09:43;39.33;;;21.02;;
18610;SDS011;9435;52.122;5.502;2024-02-28T14:12:11;35.88;;;21.27;;
18610;SDS011;9435;52.122;5.502;2024-02-28T14:14:38;38.80;;;21.10;;
18610;SDS011;9435;52.122;5.502;2024-02-28T14:17:06;35.78;;;19.25;;
18610;SDS011;9435;52.122;5.502;2024-02-28T14:19:33;33.33;;;18.48;;
18610;SDS011;9435;52.122;5.502;2024-02-28T14:22:01;34.38;;;18.55;;
18610;SDS011;9435;52.122;5.502;2024-02-28T14:24:29;31.90;;;18.25;;
18610;SDS011;9435;52.122;5.502;2024-02-28T14:26:57;33.92;;;17.38;;
18610;SDS011;9435;52.122;5.502;2024-02-28T14:29:24;33.17;;;17.63;;
18610;SDS011;9435;52.122;5.502;2024-02-28T14:31:51;32.83;;;17.50;;
18610;SDS011;9435;52.122;5.502;2024-02-28T14:34:19;31.00;;;17.35;;